createdAt,value
2022-08-08T00:00:55.238Z,35.60
2022-08-08T00:02:30.931Z,35.30
2022-08-08T00:05:09.831Z,35.40
2022-08-08T00:07:43.773Z,35.30
2022-08-08T00:10:17.111Z,35.50
2022-08-08T00:12:56.514Z,35.60
2022-08-08T00:15:56.434Z,35.80
2022-08-08T00:18:24.242Z,35.40
2022-08-08T00:20:56.273Z,35.10
2022-08-08T00:23:43.166Z,35.30
2022-08-08T00:26:26.292Z,35.50
2022-08-08T00:29:01.476Z,35.20
2022-08-08T00:32:20.362Z,35.40
2022-08-08T00:35:04.241Z,35.10
2022-08-08T00:37:47.095Z,35.70
2022-08-08T00:41:10.839Z,35.60
2022-08-08T00:44:03.298Z,36.40
2022-08-08T00:46:58.643Z,35.40
2022-08-08T00:49:50.494Z,35.60
2022-08-08T00:52:43.389Z,35.30
2022-08-08T00:55:52.537Z,35.60
2022-08-08T00:59:10.723Z,35.10
2022-08-08T01:01:47.817Z,35.70
2022-08-08T01:04:50.694Z,35.50
2022-08-08T01:07:57.649Z,35.30
2022-08-08T01:11:07.871Z,35.60
2022-08-08T01:14:16.286Z,36.10
2022-08-08T01:17:25.254Z,35.80
2022-08-08T01:20:33.588Z,36.20
2022-08-08T01:24:02.958Z,36.10
2022-08-08T01:26:48.096Z,36.10
2022-08-08T01:29:59.878Z,36.10
2022-08-08T01:33:23.587Z,36.30
2022-08-08T01:36:17.241Z,36.20
2022-08-08T01:39:07.066Z,35.90
2022-08-08T01:41:52.538Z,36.30
2022-08-08T01:44:32.619Z,36.20
2022-08-08T01:48:15.956Z,36.10
2022-08-08T01:50:09.913Z,36.30
2022-08-08T01:54:00.898Z,36.60
2022-08-08T01:56:29.218Z,36.50
2022-08-08T01:58:46.458Z,36.30
2022-08-08T02:01:21.876Z,36.40
2022-08-08T02:04:00.150Z,36.20
2022-08-08T02:06:54.688Z,36.40
2022-08-08T02:10:02.845Z,36.50
2022-08-08T02:12:27.852Z,36.10
2022-08-08T02:15:01.301Z,36.60
2022-08-08T02:17:36.059Z,36.10
2022-08-08T02:21:01.246Z,36.00
2022-08-08T02:23:15.977Z,36.40
2022-08-08T02:25:49.986Z,35.90
2022-08-08T02:28:34.704Z,36.80
2022-08-08T02:31:43.341Z,36.30
2022-08-08T02:34:09.237Z,36.20
2022-08-08T02:36:51.764Z,36.00
2022-08-08T02:40:00.001Z,36.40
2022-08-08T02:43:07.443Z,36.20
2022-08-08T02:46:03.044Z,35.90
2022-08-08T02:48:58.963Z,36.00
2022-08-08T02:52:01.226Z,36.50
2022-08-08T02:54:56.956Z,36.10
2022-08-08T02:58:03.679Z,36.50
2022-08-08T03:01:00.181Z,36.40
2022-08-08T03:05:04.610Z,36.50
2022-08-08T03:07:24.959Z,36.80
2022-08-08T03:10:31.518Z,37.80
2022-08-08T03:15:57.765Z,36.70
2022-08-08T03:16:40.420Z,36.60
2022-08-08T03:19:36.858Z,36.40
2022-08-08T03:22:04.803Z,37.00
2022-08-08T03:24:56.930Z,36.30
2022-08-08T03:27:36.051Z,36.90
2022-08-08T03:30:11.419Z,36.40
2022-08-08T03:32:47.299Z,36.70
2022-08-08T03:35:21.499Z,36.70
2022-08-08T03:38:53.232Z,36.50
2022-08-08T03:40:37.230Z,36.50
2022-08-08T03:43:15.740Z,36.50
2022-08-08T03:46:06.172Z,36.70
2022-08-08T03:49:09.799Z,36.50
2022-08-08T03:51:16.379Z,36.90
2022-08-08T03:53:47.648Z,36.70
2022-08-08T03:56:31.055Z,36.40
2022-08-08T03:58:58.176Z,36.90
2022-08-08T04:02:12.525Z,37.10
2022-08-08T04:04:23.137Z,36.90
2022-08-08T04:07:01.522Z,36.60
2022-08-08T04:09:30.844Z,36.60
2022-08-08T04:12:16.822Z,36.50
2022-08-08T04:14:46.449Z,36.70
2022-08-08T04:17:40.697Z,36.70
2022-08-08T04:20:05.277Z,36.50
2022-08-08T04:22:32.375Z,36.20
2022-08-08T04:25:02.287Z,36.40
2022-08-08T04:28:01.828Z,37.00
2022-08-08T04:30:19.670Z,37.10
2022-08-08T04:32:50.008Z,37.20
2022-08-08T04:35:18.096Z,37.30
2022-08-08T04:37:49.233Z,37.40
2022-08-08T04:40:17.684Z,38.10
2022-08-08T04:42:46.772Z,38.30
2022-08-08T04:45:25.618Z,38.70
2022-08-08T04:47:52.789Z,39.00
2022-08-08T04:50:25.259Z,38.70
2022-08-08T04:53:04.828Z,39.00
2022-08-08T04:55:37.872Z,38.40
2022-08-08T04:58:17.676Z,38.30
2022-08-08T05:00:45.080Z,39.20
2022-08-08T05:03:18.851Z,39.20
2022-08-08T05:06:01.217Z,39.50
2022-08-08T05:08:39.055Z,40.30
2022-08-08T05:11:08.114Z,41.00
2022-08-08T05:13:57.658Z,40.50
2022-08-08T05:16:52.483Z,40.80
2022-08-08T05:20:09.193Z,40.40
2022-08-08T05:22:00.533Z,40.60
2022-08-08T05:24:27.682Z,40.20
2022-08-08T05:26:54.389Z,40.40
2022-08-08T05:29:22.467Z,40.50
2022-08-08T05:32:03.340Z,40.40
2022-08-08T05:34:36.432Z,40.80
2022-08-08T05:37:16.233Z,41.30
2022-08-08T05:39:49.960Z,40.80
2022-08-08T05:42:19.521Z,40.80
2022-08-08T05:45:10.459Z,39.50
2022-08-08T05:48:00.515Z,40.60
2022-08-08T05:50:29.629Z,40.70
2022-08-08T05:52:56.485Z,39.60
2022-08-08T05:55:25.661Z,40.90
2022-08-08T05:58:03.949Z,41.60
2022-08-08T06:00:35.054Z,40.60
2022-08-08T06:03:02.575Z,40.50
2022-08-08T06:05:35.673Z,40.50
2022-08-08T06:08:09.898Z,41.30
2022-08-08T06:10:48.727Z,40.60
2022-08-08T06:13:22.404Z,40.00
2022-08-08T06:15:53.620Z,39.50
2022-08-08T06:18:22.409Z,40.00
2022-08-08T06:20:54.589Z,40.10
2022-08-08T06:23:32.701Z,40.20
2022-08-08T06:26:38.927Z,39.90
2022-08-08T06:29:26.694Z,39.80
2022-08-08T06:32:10.461Z,39.60
2022-08-08T06:34:52.601Z,39.50
2022-08-08T06:37:37.159Z,39.00
2022-08-08T06:40:06.326Z,39.10
2022-08-08T06:42:38.712Z,38.90
2022-08-08T06:45:07.036Z,38.70
2022-08-08T06:47:52.120Z,38.80
2022-08-08T06:50:31.778Z,38.50
2022-08-08T06:53:01.205Z,38.40
2022-08-08T06:55:37.660Z,38.20
2022-08-08T06:58:08.631Z,37.90
2022-08-08T07:00:40.734Z,37.60
2022-08-08T07:03:52.260Z,37.70
2022-08-08T07:06:03.213Z,37.30
2022-08-08T07:08:34.094Z,37.40
2022-08-08T07:11:03.968Z,37.00
2022-08-08T07:13:38.698Z,36.70
2022-08-08T07:16:37.824Z,36.90
2022-08-08T07:19:28.590Z,36.40
2022-08-08T07:22:05.656Z,36.40
2022-08-08T07:24:44.428Z,35.50
2022-08-08T07:27:27.597Z,36.20
2022-08-08T07:30:12.014Z,35.90
2022-08-08T07:32:42.294Z,35.70
2022-08-08T07:35:12.065Z,35.30
2022-08-08T07:37:55.977Z,35.20
2022-08-08T07:40:32.693Z,35.10
2022-08-08T07:43:02.583Z,35.10
2022-08-08T07:45:34.666Z,35.00
2022-08-08T07:48:18.341Z,34.00
2022-08-08T07:50:48.914Z,33.70
2022-08-08T07:53:52.177Z,32.90
2022-08-08T07:56:11.449Z,32.70
2022-08-08T07:58:41.670Z,32.50
2022-08-08T08:01:12.173Z,32.30
2022-08-08T08:03:45.905Z,31.90
2022-08-08T08:06:17.620Z,31.00
2022-08-08T08:08:52.426Z,31.70
2022-08-08T08:11:21.777Z,31.00
2022-08-08T08:14:07.600Z,32.40
2022-08-08T08:16:38.957Z,32.10
2022-08-08T08:19:09.444Z,32.70
2022-08-08T08:21:52.450Z,30.60
2022-08-08T08:24:30.704Z,31.50
2022-08-08T08:26:59.160Z,31.90
2022-08-08T08:29:27.814Z,30.50
2022-08-08T08:31:57.816Z,29.50
2022-08-08T08:34:32.504Z,29.50
2022-08-08T08:37:03.139Z,29.80
2022-08-08T08:40:00.173Z,29.90
2022-08-08T08:42:19.330Z,29.50
2022-08-08T08:44:56.900Z,28.10
2022-08-08T08:47:24.828Z,28.80
2022-08-08T08:49:52.150Z,28.40
2022-08-08T08:52:20.884Z,28.00
2022-08-08T08:54:59.802Z,28.90
2022-08-08T08:57:29.327Z,29.00
2022-08-08T09:00:04.730Z,29.70
2022-08-08T09:02:35.434Z,28.30
2022-08-08T09:05:06.184Z,28.60
2022-08-08T09:07:39.564Z,28.90
2022-08-08T09:10:22.424Z,29.00
2022-08-08T09:12:56.652Z,28.70
2022-08-08T09:15:40.985Z,29.20
2022-08-08T09:18:12.974Z,28.50
2022-08-08T09:22:01.170Z,26.70
2022-08-08T09:23:33.661Z,28.20
2022-08-08T09:26:13.225Z,28.70
2022-08-08T09:28:42.459Z,27.90
2022-08-08T09:31:14.582Z,29.40
2022-08-08T09:34:15.232Z,28.20
2022-08-08T09:36:34.075Z,28.50
2022-08-08T09:39:15.330Z,27.90
2022-08-08T09:41:55.033Z,28.40
2022-08-08T09:44:45.382Z,27.90
2022-08-08T09:48:02.675Z,25.70
2022-08-08T09:50:10.012Z,26.50
2022-08-08T09:52:58.416Z,26.10
2022-08-08T09:55:51.527Z,26.70
2022-08-08T09:58:20.254Z,26.60
2022-08-08T10:00:59.799Z,26.70
2022-08-08T10:03:31.552Z,24.80
2022-08-08T10:05:59.111Z,26.30
2022-08-08T10:08:30.644Z,23.90
2022-08-08T10:10:59.518Z,24.10
2022-08-08T10:13:35.362Z,26.30
2022-08-08T10:16:04.183Z,27.00
2022-08-08T10:18:33.956Z,25.00
2022-08-08T10:21:08.438Z,24.00
2022-08-08T10:23:58.544Z,24.80
2022-08-08T10:26:58.709Z,24.70
2022-08-08T10:29:23.372Z,26.70
2022-08-08T10:31:57.167Z,25.80
2022-08-08T10:34:28.824Z,24.60
2022-08-08T10:36:56.819Z,25.00
2022-08-08T10:39:43.706Z,24.50
2022-08-08T10:42:19.013Z,24.30
2022-08-08T10:44:49.521Z,23.30
2022-08-08T10:47:20.705Z,23.90
2022-08-08T10:50:00.321Z,25.30
2022-08-08T10:52:31.478Z,26.20
2022-08-08T10:55:00.031Z,25.90
2022-08-08T10:57:45.028Z,25.30
2022-08-08T11:00:21.492Z,24.50
2022-08-08T11:02:48.823Z,25.00
2022-08-08T11:05:17.759Z,24.20
2022-08-08T11:08:38.171Z,24.00
2022-08-08T11:10:35.907Z,24.50
2022-08-08T11:13:29.480Z,25.20
2022-08-08T11:15:52.465Z,24.50
2022-08-08T11:18:30.057Z,23.30
2022-08-08T11:20:58.777Z,22.50
2022-08-08T11:23:31.326Z,22.90
2022-08-08T11:26:01.270Z,22.30
2022-08-08T11:28:35.164Z,22.10
2022-08-08T11:31:06.171Z,24.20
2022-08-08T11:33:52.686Z,22.40
2022-08-08T11:36:29.047Z,22.50
2022-08-08T11:38:56.770Z,22.60
2022-08-08T11:41:24.830Z,24.10
2022-08-08T11:43:58.152Z,21.50
2022-08-08T11:46:26.733Z,21.50
2022-08-08T11:48:55.272Z,21.00
2022-08-08T11:51:30.122Z,23.40
2022-08-08T11:54:04.563Z,22.90
2022-08-08T11:56:34.699Z,22.60
2022-08-08T11:59:11.015Z,22.00
2022-08-08T12:01:38.195Z,22.80
2022-08-08T12:04:10.681Z,23.20
2022-08-08T12:06:39.414Z,22.20
2022-08-08T12:09:09.383Z,21.90
2022-08-08T12:11:41.277Z,22.10
2022-08-08T12:14:11.000Z,21.70
2022-08-08T12:16:49.133Z,21.90
2022-08-08T12:19:16.117Z,23.70
2022-08-08T12:21:59.821Z,24.10
2022-08-08T12:24:51.353Z,24.60
2022-08-08T12:27:20.856Z,23.80
2022-08-08T12:29:57.029Z,23.40
2022-08-08T12:32:23.824Z,21.70
2022-08-08T12:35:13.575Z,21.20
2022-08-08T12:38:01.128Z,21.00
2022-08-08T12:40:38.082Z,20.40
2022-08-08T12:43:32.722Z,21.50
2022-08-08T12:46:19.086Z,23.80
2022-08-08T12:49:22.107Z,23.00
2022-08-08T12:51:49.933Z,19.60
2022-08-08T12:54:27.088Z,20.00
2022-08-08T12:56:55.568Z,19.20
2022-08-08T12:59:27.509Z,19.80
2022-08-08T13:02:21.962Z,19.50
2022-08-08T13:04:57.937Z,20.60
2022-08-08T13:08:03.461Z,22.40
2022-08-08T13:10:21.203Z,22.40
2022-08-08T13:13:01.481Z,22.00
2022-08-08T13:15:32.941Z,22.60
2022-08-08T13:18:10.778Z,21.90
2022-08-08T13:20:44.584Z,22.00
2022-08-08T13:23:36.684Z,20.50
2022-08-08T13:26:14.322Z,19.90
2022-08-08T13:28:42.183Z,20.30
2022-08-08T13:31:12.334Z,20.40
2022-08-08T13:33:47.336Z,20.50
2022-08-08T13:36:17.129Z,20.40
2022-08-08T13:38:44.460Z,21.40
2022-08-08T13:41:16.506Z,21.60
2022-08-08T13:43:46.510Z,22.00
2022-08-08T13:46:26.499Z,20.50
2022-08-08T13:50:32.285Z,21.10
2022-08-08T13:51:55.751Z,19.90
2022-08-08T13:54:29.340Z,21.80
2022-08-08T13:57:08.492Z,21.30
2022-08-08T13:59:39.228Z,22.50
2022-08-08T14:02:15.161Z,21.50
2022-08-08T14:04:57.139Z,21.30
2022-08-08T14:07:29.906Z,20.60
2022-08-08T14:10:05.792Z,20.40
2022-08-08T14:12:43.727Z,19.80
2022-08-08T14:15:23.579Z,21.70
2022-08-08T14:18:34.539Z,23.10
2022-08-08T14:20:58.108Z,20.90
2022-08-08T14:24:03.785Z,21.90
2022-08-08T14:26:21.041Z,22.10
2022-08-08T14:28:53.265Z,23.30
2022-08-08T14:31:23.381Z,22.40
2022-08-08T14:34:03.259Z,21.20
2022-08-08T14:36:35.305Z,22.30
2022-08-08T14:39:11.234Z,22.40
2022-08-08T14:41:45.246Z,20.60
2022-08-08T14:44:35.373Z,21.40
2022-08-08T14:47:02.545Z,18.80
2022-08-08T14:50:06.947Z,20.30
2022-08-08T14:52:41.597Z,18.00
2022-08-08T14:55:10.375Z,18.60
2022-08-08T14:58:06.316Z,18.80
2022-08-08T15:00:26.570Z,20.80
2022-08-08T15:02:58.701Z,19.90
2022-08-08T15:05:42.891Z,19.70
2022-08-08T15:08:22.080Z,20.60
2022-08-08T15:10:49.430Z,18.60
2022-08-08T15:13:16.569Z,18.50
2022-08-08T15:16:02.557Z,18.90
2022-08-08T15:18:30.453Z,18.40
2022-08-08T15:20:57.142Z,18.50
2022-08-08T15:23:25.551Z,19.50
2022-08-08T15:25:59.685Z,18.70
2022-08-08T15:28:33.476Z,18.70
2022-08-08T15:31:01.379Z,18.50
2022-08-08T15:33:35.535Z,19.20
2022-08-08T15:36:06.082Z,20.00
2022-08-08T15:38:34.211Z,20.50
2022-08-08T15:41:00.963Z,19.70
2022-08-08T15:43:35.238Z,20.20
2022-08-08T15:46:03.447Z,20.10
2022-08-08T15:48:30.954Z,20.50
2022-08-08T15:50:57.920Z,20.20
2022-08-08T15:53:25.487Z,19.30
2022-08-08T15:55:54.198Z,20.40
2022-08-08T15:58:28.249Z,20.00
2022-08-08T16:00:58.465Z,20.20
2022-08-08T16:03:25.228Z,20.80
2022-08-08T16:06:01.090Z,20.20
2022-08-08T16:08:29.213Z,19.90
2022-08-08T16:13:15.665Z,19.80
2022-08-08T16:13:46.238Z,19.70
2022-08-08T16:16:17.966Z,20.50
2022-08-08T16:18:56.218Z,20.90
2022-08-08T16:21:27.555Z,20.10
2022-08-08T16:23:55.810Z,21.00
2022-08-08T16:26:34.349Z,20.90
2022-08-08T16:29:07.072Z,21.50
2022-08-08T16:31:37.309Z,21.20
2022-08-08T16:34:04.656Z,21.30
2022-08-08T16:36:34.381Z,21.40
2022-08-08T16:39:01.487Z,20.90
2022-08-08T16:41:38.725Z,20.90
2022-08-08T16:44:12.600Z,21.10
2022-08-08T16:46:46.314Z,20.60
2022-08-08T16:49:13.314Z,20.80
2022-08-08T16:55:04.275Z,21.30
2022-08-08T16:55:05.351Z,21.00
2022-08-08T16:57:23.730Z,20.70
2022-08-08T17:00:06.575Z,20.40
2022-08-08T17:02:39.659Z,20.90
2022-08-08T17:05:08.334Z,20.70
2022-08-08T17:07:37.887Z,20.80
2022-08-08T17:10:08.470Z,20.90
2022-08-08T17:12:37.452Z,22.00
2022-08-08T17:15:17.735Z,21.90
2022-08-08T17:18:03.772Z,21.60
2022-08-08T17:20:31.779Z,21.60
2022-08-08T17:23:16.670Z,22.40
2022-08-08T17:25:52.377Z,22.30
2022-08-08T17:28:34.493Z,22.10
2022-08-08T17:31:02.602Z,22.40
2022-08-08T17:34:35.731Z,22.30
2022-08-08T17:36:35.965Z,22.30
2022-08-08T17:39:05.316Z,22.50
2022-08-08T17:41:58.318Z,22.30
2022-08-08T17:44:31.312Z,22.20
2022-08-08T17:46:58.100Z,22.50
2022-08-08T17:49:24.979Z,22.80
2022-08-08T17:51:55.571Z,22.30
2022-08-08T17:54:26.137Z,22.50
2022-08-08T17:56:55.991Z,22.50
2022-08-08T17:59:30.615Z,22.90
2022-08-08T18:02:18.850Z,23.00
2022-08-08T18:04:50.872Z,22.90
2022-08-08T18:08:01.758Z,23.00
2022-08-08T18:10:05.913Z,22.90
2022-08-08T18:12:32.767Z,23.00
2022-08-08T18:14:59.989Z,23.70
2022-08-08T18:17:28.696Z,23.30
2022-08-08T18:20:42.730Z,23.30
2022-08-08T18:23:01.428Z,23.00
2022-08-08T18:25:28.538Z,23.50
2022-08-08T18:28:04.920Z,23.20
2022-08-08T18:30:31.932Z,23.50
2022-08-08T18:33:00.143Z,24.30
2022-08-08T18:35:34.165Z,23.70
2022-08-08T18:38:17.127Z,23.80
2022-08-08T18:40:46.002Z,24.00
2022-08-08T18:43:14.673Z,24.10
2022-08-08T18:46:00.656Z,24.30
2022-08-08T18:48:33.122Z,24.30
2022-08-08T18:51:00.125Z,24.40
2022-08-08T18:54:00.255Z,24.50
2022-08-08T18:56:20.652Z,24.80
2022-08-08T18:58:47.447Z,24.90
2022-08-08T19:02:25.152Z,25.00
2022-08-08T19:04:10.847Z,24.90
2022-08-08T19:06:39.574Z,25.00
2022-08-08T19:09:13.280Z,25.30
2022-08-08T19:11:40.349Z,25.20
2022-08-08T19:14:13.469Z,25.30
2022-08-08T19:16:47.128Z,25.40
2022-08-08T19:19:15.242Z,25.50
2022-08-08T19:21:48.702Z,25.50
2022-08-08T19:24:38.997Z,25.60
2022-08-08T19:27:04.013Z,25.70
2022-08-08T19:29:30.922Z,25.80
2022-08-08T19:31:57.643Z,25.80
2022-08-08T19:34:35.981Z,26.00
2022-08-08T19:37:05.709Z,26.10
2022-08-08T19:39:35.328Z,26.20
2022-08-08T19:42:03.456Z,26.20
2022-08-08T19:44:45.309Z,26.40
2022-08-08T19:47:13.297Z,26.40
2022-08-08T19:49:43.427Z,26.60
2022-08-08T19:52:34.731Z,26.50
2022-08-08T19:55:05.955Z,26.80
2022-08-08T19:57:32.969Z,26.80
2022-08-08T20:00:11.040Z,26.90
2022-08-08T20:02:38.423Z,26.90
2022-08-08T20:05:08.539Z,27.00
2022-08-08T20:08:28.909Z,27.00
2022-08-08T20:10:26.171Z,27.20
2022-08-08T20:13:15.617Z,27.30
2022-08-08T20:15:52.691Z,27.40
2022-08-08T20:18:29.509Z,27.90
2022-08-08T20:21:05.784Z,27.50
2022-08-08T20:23:32.513Z,27.50
2022-08-08T20:26:00.254Z,27.60
2022-08-08T20:28:32.720Z,27.70
2022-08-08T20:31:00.094Z,27.80
2022-08-08T20:35:56.943Z,28.00
2022-08-08T20:38:32.402Z,27.90
2022-08-08T20:41:00.417Z,28.00
2022-08-08T20:43:44.078Z,28.10
2022-08-08T20:46:13.917Z,28.10
2022-08-08T20:48:40.975Z,28.20
2022-08-08T20:51:07.761Z,28.20
2022-08-08T20:53:58.989Z,28.40
2022-08-08T20:56:35.908Z,28.30
2022-08-08T20:59:09.657Z,28.50
2022-08-08T21:02:05.348Z,28.70
2022-08-08T21:04:23.621Z,28.50
2022-08-08T21:06:54.673Z,28.80
2022-08-08T21:09:23.098Z,29.00
2022-08-08T21:12:02.701Z,29.00
2022-08-08T21:14:34.893Z,29.20
2022-08-08T21:17:02.399Z,29.20
2022-08-08T21:19:44.439Z,29.40
2022-08-08T21:22:13.963Z,29.50
2022-08-08T21:24:53.579Z,29.60
2022-08-08T21:28:06.362Z,29.70
2022-08-08T21:30:10.741Z,29.80
2022-08-08T21:32:40.403Z,29.70
2022-08-08T21:36:14.715Z,29.50
2022-08-08T21:37:55.689Z,29.60
2022-08-08T21:40:32.359Z,29.90
2022-08-08T21:42:59.334Z,30.00
2022-08-08T21:48:00.557Z,29.90
2022-08-08T21:48:19.907Z,30.00
2022-08-08T21:50:49.821Z,30.20
2022-08-08T21:54:32.945Z,30.10
2022-08-08T21:56:18.245Z,30.10
2022-08-08T21:58:55.285Z,30.30
2022-08-08T22:01:38.811Z,30.30
2022-08-08T22:04:07.443Z,30.70
2022-08-08T22:06:38.034Z,30.70
2022-08-08T22:09:08.150Z,30.20
2022-08-08T22:11:51.444Z,30.60
2022-08-08T22:14:26.420Z,30.60
2022-08-08T22:16:53.777Z,30.50
2022-08-08T22:19:23.604Z,30.40
2022-08-08T22:21:51.022Z,30.80
2022-08-08T22:24:17.713Z,31.10
2022-08-08T22:27:02.507Z,31.10
2022-08-08T22:30:00.979Z,31.60
2022-08-08T22:32:18.124Z,31.00
2022-08-08T22:34:51.199Z,30.50
2022-08-08T22:37:28.226Z,31.20
2022-08-08T22:40:06.521Z,31.50
2022-08-08T22:42:35.008Z,31.30
2022-08-08T22:45:02.567Z,31.70
2022-08-08T22:47:37.882Z,31.70
2022-08-08T22:50:09.855Z,31.50
2022-08-08T22:53:22.343Z,31.30
2022-08-08T22:55:58.328Z,31.60
2022-08-08T22:58:30.971Z,31.90
2022-08-08T23:00:58.050Z,31.70
2022-08-08T23:03:34.359Z,32.30
2022-08-08T23:06:13.792Z,32.40
2022-08-08T23:08:44.572Z,32.40
2022-08-08T23:11:23.567Z,31.80
2022-08-08T23:14:12.159Z,32.00
2022-08-08T23:16:43.821Z,32.30
2022-08-08T23:19:11.944Z,32.30
2022-08-08T23:21:38.950Z,32.30
2022-08-08T23:24:06.762Z,32.30
2022-08-08T23:26:34.012Z,32.90
2022-08-08T23:29:01.950Z,32.90
2022-08-08T23:31:29.966Z,33.00
2022-08-08T23:34:18.750Z,32.70
2022-08-08T23:36:46.764Z,33.00
2022-08-08T23:39:13.552Z,33.20
2022-08-08T23:41:45.548Z,33.10
2022-08-08T23:44:13.051Z,33.00
2022-08-08T23:49:01.113Z,33.50
2022-08-08T23:49:27.930Z,33.70
2022-08-08T23:52:04.486Z,32.90
2022-08-08T23:54:41.924Z,33.60
2022-08-08T23:57:27.174Z,33.30
